Time;durP1;ratioP1;P1;durP2;ratioP2;P2;SDS_P1;SDS_P2;PMS_P1;PMS_P2;Temp;Humidity;BMP_temperature;BMP_pressure;BME280_temperature;BME280_humidity;BME280_pressure;Samples;Min_cycle;Max_cycle;Signal;HPM_P1;HPM_P2
2023/12/27 00:02:22;;;;;;;26.58;3.03;;;;;;;;;;5034225;28;20773;-80
2023/12/27 00:04:48;;;;;;;85.97;5.85;;;;;;;;;;5034537;28;20104;-80
2023/12/27 00:07:15;;;;;;;48.65;3.90;;;;;;;;;;5035347;28;20063;-80
2023/12/27 00:09:41;;;;;;;38.45;3.03;;;;;;;;;;5036007;28;20057;-80
2023/12/27 00:12:08;;;;;;;56.50;4.05;;;;;;;;;;5034149;28;20094;-80
2023/12/27 00:14:35;;;;;;;56.28;4.20;;;;;;;;;;5037537;28;20033;-80
2023/12/27 00:17:01;;;;;;;49.03;3.72;;;;;;;;;;5034414;28;20041;-80
2023/12/27 00:19:28;;;;;;;89.97;5.80;;;;;;;;;;5039131;28;20048;-80
2023/12/27 00:21:55;;;;;;;57.60;4.60;;;;;;;;;;5040383;28;20048;-82
2023/12/27 00:24:21;;;;;;;53.63;3.80;;;;;;;;;;5040956;28;20148;-79
2023/12/27 00:26:48;;;;;;;79.30;5.78;;;;;;;;;;5041479;28;20069;-80
2023/12/27 00:29:15;;;;;;;62.90;3.95;;;;;;;;;;5041498;28;20033;-80
2023/12/27 00:31:41;;;;;;;42.97;2.88;;;;;;;;;;5043055;28;20056;-80
2023/12/27 00:34:08;;;;;;;77.28;4.97;;;;;;;;;;5043870;28;20045;-80
2023/12/27 00:36:35;;;;;;;36.22;3.03;;;;;;;;;;5035796;28;20051;-81
2023/12/27 00:39:03;;;;;;;62.47;4.57;;;;;;;;;;5042326;28;20711;-80
2023/12/27 00:41:30;;;;;;;78.75;4.97;;;;;;;;;;5046676;28;20061;-80
2023/12/27 00:43:57;;;;;;;74.63;4.80;;;;;;;;;;5038046;28;20390;-79
2023/12/27 00:46:23;;;;;;;45.83;3.33;;;;;;;;;;5036868;28;20125;-81
2023/12/27 00:48:50;;;;;;;54.50;3.72;;;;;;;;;;5017463;28;20046;-80
2023/12/27 00:51:18;;;;;;;47.35;3.72;;;;;;;;;;5007991;28;20034;-79
2023/12/27 00:53:44;;;;;;;47.72;3.15;;;;;;;;;;5033132;28;20041;-80
2023/12/27 00:56:11;;;;;;;60.22;3.85;;;;;;;;;;5017689;28;20152;-80
2023/12/27 00:58:39;;;;;;;57.17;4.00;;;;;;;;;;5036378;28;20398;-80
2023/12/27 01:01:05;;;;;;;58.60;3.88;;;;;;;;;;5036200;28;20792;-79
2023/12/27 01:03:32;;;;;;;74.05;4.80;;;;;;;;;;5019497;28;20533;-80
2023/12/27 01:05:59;;;;;;;65.22;4.40;;;;;;;;;;5020220;28;20045;-80
2023/12/27 01:08:26;;;;;;;68.97;5.22;;;;;;;;;;5036440;28;20041;-80
2023/12/27 01:10:52;;;;;;;89.05;5.53;;;;;;;;;;5039995;28;20068;-80
2023/12/27 01:13:19;;;;;;;50.70;3.50;;;;;;;;;;5023350;28;20030;-80
2023/12/27 01:15:46;;;;;;;46.97;3.40;;;;;;;;;;5040645;28;20065;-80
2023/12/27 01:18:12;;;;;;;65.28;4.30;;;;;;;;;;5024077;28;20053;-80
2023/12/27 01:20:39;;;;;;;65.53;4.25;;;;;;;;;;5025339;28;20064;-80
2023/12/27 01:23:06;;;;;;;60.03;4.07;;;;;;;;;;5026089;28;20040;-80
2023/12/27 01:25:32;;;;;;;58.63;3.72;;;;;;;;;;5044146;28;20106;-80
2023/12/27 01:27:59;;;;;;;62.63;4.95;;;;;;;;;;5045848;28;20442;-80
2023/12/27 01:30:26;;;;;;;50.88;3.50;;;;;;;;;;5044137;28;20087;-80
2023/12/27 01:32:53;;;;;;;56.70;4.03;;;;;;;;;;5047840;28;20051;-81
2023/12/27 01:35:19;;;;;;;48.80;3.42;;;;;;;;;;5030536;28;20041;-80
2023/12/27 01:37:46;;;;;;;38.85;3.03;;;;;;;;;;5047725;28;20033;-80
2023/12/27 01:40:14;;;;;;;30.40;2.45;;;;;;;;;;5032271;28;20053;-80
2023/12/27 01:42:41;;;;;;;59.28;4.78;;;;;;;;;;5032672;28;20052;-80
2023/12/27 01:45:09;;;;;;;41.90;3.55;;;;;;;;;;5032196;28;20492;-80
2023/12/27 01:47:37;;;;;;;39.03;3.15;;;;;;;;;;5032220;28;20062;-80
2023/12/27 01:50:06;;;;;;;37.65;3.47;;;;;;;;;;5015130;28;20061;-80
2023/12/27 01:55:22;;;;;;;943.28;84.13;;;;;;;;;;4889217;28;20173;-79
2023/12/27 01:57:49;;;;;;;958.70;86.35;;;;;;;;;;4858802;28;21033;-79
2023/12/27 02:00:16;;;;;;;943.70;85.30;;;;;;;;;;4858715;28;20758;-79
2023/12/27 02:02:42;;;;;;;1022.88;93.43;;;;;;;;;;4876718;28;20038;-79
2023/12/27 02:05:09;;;;;;;1008.28;91.85;;;;;;;;;;4869834;28;20147;-80
2023/12/27 02:07:36;;;;;;;946.38;85.43;;;;;;;;;;4880454;28;20100;-79
2023/12/27 02:10:03;;;;;;;1036.53;95.88;;;;;;;;;;4879652;28;20253;-79
2023/12/27 02:12:30;;;;;;;962.40;87.32;;;;;;;;;;4882292;28;20382;-80
2023/12/27 02:14:57;;;;;;;930.03;83.68;;;;;;;;;;4885839;28;20096;-79
2023/12/27 02:17:27;;;;;;;993.08;90.93;;;;;;;;;;4873519;28;20944;-80
2023/12/27 02:19:55;;;;;;;993.42;90.00;;;;;;;;;;4884934;28;20121;-80
2023/12/27 02:22:22;;;;;;;933.33;83.35;;;;;;;;;;4887049;28;21095;-79
2023/12/27 02:24:50;;;;;;;950.25;85.03;;;;;;;;;;4870481;28;21081;-80
2023/12/27 02:27:16;;;;;;;998.50;90.68;;;;;;;;;;4885021;28;20046;-79
2023/12/27 02:29:43;;;;;;;950.45;85.05;;;;;;;;;;4888140;28;20049;-79
2023/12/27 02:32:10;;;;;;;995.80;90.47;;;;;;;;;;4888711;28;20054;-79
2023/12/27 02:34:36;;;;;;;1027.53;94.13;;;;;;;;;;4888845;28;20046;-80
2023/12/27 02:37:03;;;;;;;1064.18;98.45;;;;;;;;;;4888214;28;20057;-80
2023/12/27 02:39:30;;;;;;;953.22;85.60;;;;;;;;;;4890052;28;20041;-79
2023/12/27 02:41:56;;;;;;;953.15;85.72;;;;;;;;;;4881902;28;20350;-80
2023/12/27 02:44:26;;;;;;;919.72;81.60;;;;;;;;;;4855432;28;21124;-79
2023/12/27 02:46:53;;;;;;;891.72;78.55;;;;;;;;;;4878255;28;20169;-80
2023/12/27 02:49:19;;;;;;;967.50;87.03;;;;;;;;;;4879737;28;20064;-79
2023/12/27 02:51:47;;;;;;;953.60;85.25;;;;;;;;;;4877692;28;21002;-80
2023/12/27 02:54:13;;;;;;;955.15;85.72;;;;;;;;;;4869959;28;20050;-79
2023/12/27 02:56:40;;;;;;;1028.07;94.00;;;;;;;;;;4875420;28;20034;-79
2023/12/27 02:59:09;;;;;;;1006.10;91.55;;;;;;;;;;4861194;28;20046;-79
2023/12/27 03:01:35;;;;;;;980.25;88.18;;;;;;;;;;4875018;28;20038;-79
2023/12/27 03:04:02;;;;;;;992.72;89.55;;;;;;;;;;4870169;28;20850;-82
2023/12/27 03:06:29;;;;;;;1023.45;93.38;;;;;;;;;;4879100;28;20043;-80
2023/12/27 03:08:56;;;;;;;952.35;85.38;;;;;;;;;;4880225;28;20144;-79
2023/12/27 03:11:22;;;;;;;1065.72;98.45;;;;;;;;;;4879568;28;20038;-80
2023/12/27 03:13:49;;;;;;;1035.88;94.60;;;;;;;;;;4881577;28;20939;-79
2023/12/27 03:16:17;;;;;;;952.60;85.35;;;;;;;;;;4883262;28;20149;-79
2023/12/27 03:18:45;;;;;;;953.78;85.07;;;;;;;;;;4881580;28;20042;-79
2023/12/27 03:21:12;;;;;;;1053.78;96.57;;;;;;;;;;4865742;28;20049;-79
2023/12/27 03:23:39;;;;;;;981.70;88.55;;;;;;;;;;4869195;28;20049;-79
2023/12/27 03:26:06;;;;;;;960.78;86.25;;;;;;;;;;4886812;28;20108;-79
2023/12/27 03:28:32;;;;;;;1010.75;92.15;;;;;;;;;;4868621;28;20240;-79
2023/12/27 03:30:59;;;;;;;974.85;87.53;;;;;;;;;;4888815;28;21072;-80
2023/12/27 03:33:26;;;;;;;933.45;83.07;;;;;;;;;;4865477;28;20042;-80
2023/12/27 03:35:53;;;;;;;989.17;89.63;;;;;;;;;;4872368;28;20072;-79
2023/12/27 03:38:19;;;;;;;940.08;83.65;;;;;;;;;;4889615;28;20034;-79
2023/12/27 03:40:46;;;;;;;960.08;85.95;;;;;;;;;;4877932;28;20059;-84
2023/12/27 03:43:12;;;;;;;997.17;90.20;;;;;;;;;;4874020;28;20372;-84
2023/12/27 03:45:39;;;;;;;971.13;87.75;;;;;;;;;;4872331;28;21046;-84
2023/12/27 03:48:07;;;;;;;967.65;87.82;;;;;;;;;;4872041;28;20145;-84
2023/12/27 03:50:36;;;;;;;974.25;87.72;;;;;;;;;;4853549;28;20056;-83
2023/12/27 03:53:02;;;;;;;972.00;88.30;;;;;;;;;;4858197;28;20179;-84
2023/12/27 03:55:29;;;;;;;948.80;84.78;;;;;;;;;;4870233;28;21403;-84
2023/12/27 03:57:55;;;;;;;978.63;88.38;;;;;;;;;;4858946;28;20973;-83
2023/12/27 04:00:22;;;;;;;947.28;84.70;;;;;;;;;;4863492;28;20157;-85
2023/12/27 04:02:49;;;;;;;962.67;86.65;;;;;;;;;;4876896;28;20038;-84
2023/12/27 04:05:15;;;;;;;969.08;86.65;;;;;;;;;;4860601;28;20042;-84
2023/12/27 04:07:42;;;;;;;964.15;86.45;;;;;;;;;;4861723;28;20041;-84
2023/12/27 04:10:09;;;;;;;970.92;87.47;;;;;;;;;;4864144;28;20056;-84
2023/12/27 04:12:35;;;;;;;1000.20;91.18;;;;;;;;;;4902431;28;20944;-84
2023/12/27 04:15:02;;;;;;;990.63;89.60;;;;;;;;;;4881384;28;20212;-84
2023/12/27 04:17:29;;;;;;;944.10;84.82;;;;;;;;;;4866069;28;21109;-84
2023/12/27 04:19:55;;;;;;;980.75;89.03;;;;;;;;;;4883897;28;20992;-84
2023/12/27 04:22:22;;;;;;;963.05;86.07;;;;;;;;;;4866064;28;20070;-84
2023/12/27 04:24:49;;;;;;;920.88;82.07;;;;;;;;;;4886689;28;20061;-84
2023/12/27 04:27:15;;;;;;;1204.03;116.93;;;;;;;;;;4881985;28;20952;-84
2023/12/27 04:29:42;;;;;;;963.47;85.68;;;;;;;;;;4886910;28;20148;-84
2023/12/27 04:32:08;;;;;;;988.03;89.72;;;;;;;;;;4872133;28;21035;-84
2023/12/27 04:34:36;;;;;;;999.70;91.30;;;;;;;;;;4888132;28;20112;-86
2023/12/27 04:37:02;;;;;;;976.80;87.95;;;;;;;;;;4887993;28;20045;-86
2023/12/27 04:39:32;;;;;;;931.35;83.40;;;;;;;;;;4861287;28;21016;-86
2023/12/27 04:41:59;;;;;;;949.97;84.55;;;;;;;;;;4869736;28;20034;-85
2023/12/27 04:44:25;;;;;;;949.25;84.53;;;;;;;;;;4857674;28;20057;-86
2023/12/27 04:46:52;;;;;;;945.35;84.47;;;;;;;;;;4873592;28;20046;-84
2023/12/27 04:49:19;;;;;;;1078.13;100.68;;;;;;;;;;4854624;28;21079;-84
2023/12/27 04:51:46;;;;;;;967.97;87.03;;;;;;;;;;4873345;28;20042;-84
2023/12/27 04:54:13;;;;;;;966.40;86.75;;;;;;;;;;4874483;28;21040;-84
2023/12/27 04:56:39;;;;;;;1022.63;93.20;;;;;;;;;;4869243;28;20034;-85
2023/12/27 04:59:06;;;;;;;1026.70;93.45;;;;;;;;;;4868511;28;20038;-84
2023/12/27 05:01:32;;;;;;;931.72;83.53;;;;;;;;;;4878431;28;20061;-84
2023/12/27 05:03:59;;;;;;;973.28;87.57;;;;;;;;;;4879307;28;20042;-84
2023/12/27 05:06:26;;;;;;;958.67;85.70;;;;;;;;;;4858359;28;21002;-84
2023/12/27 05:08:53;;;;;;;931.35;82.90;;;;;;;;;;4862974;28;20053;-85
2023/12/27 05:11:20;;;;;;;1073.75;99.38;;;;;;;;;;4886326;28;20137;-84
2023/12/27 05:13:47;;;;;;;973.60;87.97;;;;;;;;;;4881555;28;20045;-84
2023/12/27 05:16:16;;;;;;;965.55;86.55;;;;;;;;;;4883465;28;20037;-84
2023/12/27 05:18:44;;;;;;;958.95;86.72;;;;;;;;;;4883107;28;20038;-84
2023/12/27 05:21:11;;;;;;;975.67;88.38;;;;;;;;;;4882693;28;20041;-84
2023/12/27 05:23:37;;;;;;;937.25;84.03;;;;;;;;;;4884628;28;20280;-84
2023/12/27 05:26:04;;;;;;;989.25;90.50;;;;;;;;;;4885506;28;20102;-84
2023/12/27 05:28:31;;;;;;;1000.25;90.50;;;;;;;;;;4887108;28;20041;-84
2023/12/27 05:30:58;;;;;;;940.40;83.88;;;;;;;;;;4887809;28;20037;-84
2023/12/27 05:33:25;;;;;;;995.50;89.72;;;;;;;;;;4886085;28;21198;-84
2023/12/27 05:35:52;;;;;;;962.88;86.35;;;;;;;;;;4890236;28;20140;-84
2023/12/27 05:38:22;;;;;;;930.67;83.43;;;;;;;;;;4878684;28;20041;-84
2023/12/27 05:40:49;;;;;;;940.95;84.40;;;;;;;;;;4874097;28;20900;-84
2023/12/27 05:43:15;;;;;;;1092.07;101.20;;;;;;;;;;4872415;28;20563;-84
2023/12/27 05:45:42;;;;;;;920.35;82.03;;;;;;;;;;4877786;28;21293;-83
2023/12/27 05:48:08;;;;;;;1046.32;96.88;;;;;;;;;;4874973;28;20153;-84
2023/12/27 05:50:35;;;;;;;1002.08;90.50;;;;;;;;;;4880227;28;20227;-84
2023/12/27 05:53:02;;;;;;;961.28;86.93;;;;;;;;;;4875632;28;20061;-84
2023/12/27 05:55:29;;;;;;;945.97;84.45;;;;;;;;;;4881632;28;20046;-84
2023/12/27 05:57:55;;;;;;;981.40;89.00;;;;;;;;;;4880687;28;20041;-84
2023/12/27 06:00:22;;;;;;;950.17;85.22;;;;;;;;;;4879898;28;20051;-86
2023/12/27 06:02:49;;;;;;;935.42;83.75;;;;;;;;;;4880440;28;20899;-84
2023/12/27 06:05:16;;;;;;;1041.72;95.50;;;;;;;;;;4880230;28;20042;-85
2023/12/27 06:07:42;;;;;;;948.10;85.47;;;;;;;;;;4882715;28;20034;-85
2023/12/27 06:10:09;;;;;;;957.00;85.75;;;;;;;;;;4885213;28;20048;-84
2023/12/27 06:12:35;;;;;;;1028.68;94.47;;;;;;;;;;4883621;28;20215;-85
2023/12/27 06:15:02;;;;;;;947.40;85.50;;;;;;;;;;4885639;28;20045;-85
2023/12/27 06:17:29;;;;;;;961.15;89.85;;;;;;;;;;4883909;28;20912;-85
2023/12/27 06:19:55;;;;;;;1017.28;93.78;;;;;;;;;;4884956;28;20986;-84
2023/12/27 06:22:22;;;;;;;886.78;79.22;;;;;;;;;;4888046;28;20037;-85
2023/12/27 06:24:48;;;;;;;1002.63;92.47;;;;;;;;;;4891665;28;21564;-84
2023/12/27 06:27:15;;;;;;;1181.47;114.18;;;;;;;;;;4882687;28;20096;-84
2023/12/27 06:29:42;;;;;;;957.33;87.70;;;;;;;;;;4886782;28;20135;-84
2023/12/27 06:32:08;;;;;;;1034.10;97.53;;;;;;;;;;4889077;28;20053;-84
2023/12/27 06:34:35;;;;;;;1006.45;91.88;;;;;;;;;;4889813;28;20940;-84
2023/12/27 06:37:01;;;;;;;949.88;85.15;;;;;;;;;;4873616;28;20042;-84
2023/12/27 06:39:28;;;;;;;923.78;82.75;;;;;;;;;;4873107;28;20238;-84
2023/12/27 06:41:55;;;;;;;979.95;88.78;;;;;;;;;;4877373;28;20190;-84
2023/12/27 06:44:22;;;;;;;960.78;86.78;;;;;;;;;;4874421;28;20926;-85
2023/12/27 06:46:49;;;;;;;932.58;82.90;;;;;;;;;;4873344;28;20173;-84
2023/12/27 06:49:15;;;;;;;978.63;88.05;;;;;;;;;;4875590;28;20057;-84
2023/12/27 06:51:42;;;;;;;958.00;86.00;;;;;;;;;;4877163;28;21349;-85
2023/12/27 06:54:09;;;;;;;966.22;86.93;;;;;;;;;;4877442;28;20047;-84
2023/12/27 06:56:38;;;;;;;1051.43;97.93;;;;;;;;;;4876572;28;20041;-84
2023/12/27 06:59:05;;;;;;;975.25;89.43;;;;;;;;;;4879889;28;20053;-84
2023/12/27 07:01:32;;;;;;;941.22;85.63;;;;;;;;;;4879908;28;20912;-84
2023/12/27 07:03:58;;;;;;;1016.67;93.93;;;;;;;;;;4880063;28;20065;-84
2023/12/27 07:06:25;;;;;;;940.40;84.43;;;;;;;;;;4881298;28;20050;-83
2023/12/27 07:08:52;;;;;;;935.47;83.35;;;;;;;;;;4883010;28;20034;-84
2023/12/27 07:11:19;;;;;;;1050.47;97.30;;;;;;;;;;4864901;28;20089;-84
2023/12/27 07:13:46;;;;;;;1008.88;91.40;;;;;;;;;;4882578;28;20062;-84
2023/12/27 07:16:14;;;;;;;954.22;86.80;;;;;;;;;;4885932;28;20053;-84
2023/12/27 07:18:40;;;;;;;1028.65;95.38;;;;;;;;;;4884493;28;20069;-85
2023/12/27 07:21:07;;;;;;;985.63;91.78;;;;;;;;;;4887263;28;20052;-85
2023/12/27 07:23:34;;;;;;;944.53;84.82;;;;;;;;;;4887696;28;20041;-84
2023/12/27 07:26:00;;;;;;;982.85;88.63;;;;;;;;;;4885337;28;20883;-85
2023/12/27 07:28:27;;;;;;;936.03;83.82;;;;;;;;;;4887181;28;20670;-84
2023/12/27 07:30:54;;;;;;;920.65;82.13;;;;;;;;;;4889027;28;20148;-84
2023/12/27 07:33:20;;;;;;;1046.57;96.15;;;;;;;;;;4886608;28;20421;-84
2023/12/27 07:35:48;;;;;;;1053.55;96.78;;;;;;;;;;4871059;28;20038;-84
2023/12/27 07:38:14;;;;;;;968.35;88.00;;;;;;;;;;4872458;28;21198;-84
2023/12/27 07:40:41;;;;;;;1075.90;100.53;;;;;;;;;;4874650;28;20054;-85
2023/12/27 07:43:09;;;;;;;1051.50;96.30;;;;;;;;;;4877058;28;20157;-84
2023/12/27 07:45:36;;;;;;;934.47;83.75;;;;;;;;;;4874155;28;20072;-84
2023/12/27 07:48:03;;;;;;;1010.03;91.80;;;;;;;;;;4874685;28;21219;-84
2023/12/27 07:50:30;;;;;;;986.60;89.53;;;;;;;;;;4875387;28;20045;-84
2023/12/27 07:52:57;;;;;;;938.08;84.00;;;;;;;;;;4879767;28;20046;-84
2023/12/27 07:55:24;;;;;;;950.28;85.53;;;;;;;;;;4875714;28;20039;-85
2023/12/27 07:57:50;;;;;;;1002.33;91.70;;;;;;;;;;4878003;28;20747;-84
2023/12/27 08:00:18;;;;;;;1036.50;96.30;;;;;;;;;;4878969;28;20046;-84
2023/12/27 08:02:45;;;;;;;965.90;86.70;;;;;;;;;;4881564;28;20038;-84
2023/12/27 08:05:11;;;;;;;1019.65;94.53;;;;;;;;;;4876127;28;21120;-83
2023/12/27 08:07:38;;;;;;;977.15;88.80;;;;;;;;;;4881096;28;20125;-87
2023/12/27 08:10:06;;;;;;;963.20;88.57;;;;;;;;;;4880471;28;20936;-86
2023/12/27 08:12:33;;;;;;;974.63;88.18;;;;;;;;;;4882854;28;20953;-83
2023/12/27 08:15:00;;;;;;;931.58;84.85;;;;;;;;;;4885087;28;20932;-83
2023/12/27 08:17:27;;;;;;;970.30;88.53;;;;;;;;;;4883756;28;21008;-84
2023/12/27 08:19:53;;;;;;;1008.72;91.82;;;;;;;;;;4883602;28;20042;-84
2023/12/27 08:22:20;;;;;;;1018.05;93.13;;;;;;;;;;4885326;28;20038;-84
2023/12/27 08:24:47;;;;;;;1006.33;93.53;;;;;;;;;;4885425;28;20830;-86
2023/12/27 08:27:14;;;;;;;1026.43;95.30;;;;;;;;;;4886764;28;20200;-86
2023/12/27 08:29:41;;;;;;;961.10;88.82;;;;;;;;;;4889153;28;21038;-87
2023/12/27 08:32:08;;;;;;;965.53;88.70;;;;;;;;;;4885852;28;20077;-84
2023/12/27 08:34:35;;;;;;;1002.97;91.93;;;;;;;;;;4870919;28;21121;-84
2023/12/27 08:37:02;;;;;;;971.67;89.70;;;;;;;;;;4875824;28;20038;-85
2023/12/27 08:39:29;;;;;;;951.00;86.32;;;;;;;;;;4873216;28;20139;-84
2023/12/27 08:41:55;;;;;;;988.78;90.93;;;;;;;;;;4872130;28;20061;-85
2023/12/27 08:44:22;;;;;;;927.83;84.18;;;;;;;;;;4876069;28;21174;-84
2023/12/27 08:46:48;;;;;;;974.92;89.78;;;;;;;;;;4871778;28;21151;-84
2023/12/27 08:49:16;;;;;;;1041.30;97.93;;;;;;;;;;4871449;28;20461;-84
2023/12/27 08:51:42;;;;;;;965.05;88.45;;;;;;;;;;4877826;28;20034;-84
2023/12/27 08:54:09;;;;;;;1037.70;98.40;;;;;;;;;;4873090;28;20045;-84
2023/12/27 08:56:36;;;;;;;1013.08;94.18;;;;;;;;;;4877594;28;20042;-85
2023/12/27 08:59:03;;;;;;;953.75;86.75;;;;;;;;;;4878707;28;20077;-85
2023/12/27 09:01:31;;;;;;;947.38;86.47;;;;;;;;;;4885820;28;20129;-87
2023/12/27 09:03:58;;;;;;;959.50;87.53;;;;;;;;;;4884874;28;20157;-87
2023/12/27 09:06:25;;;;;;;957.88;86.75;;;;;;;;;;4885338;28;21037;-84
2023/12/27 09:08:52;;;;;;;918.95;82.78;;;;;;;;;;4886503;28;20061;-84
2023/12/27 09:11:18;;;;;;;1072.78;101.85;;;;;;;;;;4883649;28;20068;-84
2023/12/27 09:14:05;;;;;;;978.33;89.32;;;;;;;;;;4887699;28;20966;-84
2023/12/27 09:16:32;;;;;;;960.75;87.32;;;;;;;;;;4889407;28;20034;-84
2023/12/27 09:18:59;;;;;;;934.45;83.43;;;;;;;;;;4888313;28;20507;-84
2023/12/27 09:21:26;;;;;;;996.20;91.30;;;;;;;;;;4887365;28;20041;-84
2023/12/27 09:23:54;;;;;;;965.17;87.45;;;;;;;;;;4889571;28;20053;-84
2023/12/27 09:26:20;;;;;;;943.28;85.60;;;;;;;;;;4890770;28;20042;-84
2023/12/27 09:28:47;;;;;;;971.53;88.95;;;;;;;;;;4892001;28;20125;-84
2023/12/27 09:31:14;;;;;;;1099.60;103.50;;;;;;;;;;4883097;28;20046;-86
2023/12/27 09:33:45;;;;;;;976.13;88.65;;;;;;;;;;4876648;28;20041;-84
2023/12/27 09:36:12;;;;;;;952.65;86.95;;;;;;;;;;4876752;28;20100;-84
2023/12/27 09:38:39;;;;;;;954.40;86.75;;;;;;;;;;4877211;28;20111;-84
2023/12/27 09:41:07;;;;;;;1013.63;92.60;;;;;;;;;;4877000;28;20038;-84
2023/12/27 09:43:35;;;;;;;948.75;86.55;;;;;;;;;;4880578;28;20100;-85
2023/12/27 09:46:03;;;;;;;972.30;88.07;;;;;;;;;;4877670;28;20042;-84
2023/12/27 09:48:30;;;;;;;1066.18;100.68;;;;;;;;;;4881155;28;20042;-84
2023/12/27 09:50:58;;;;;;;946.97;85.97;;;;;;;;;;4880632;28;20046;-84
2023/12/27 09:53:25;;;;;;;956.03;86.80;;;;;;;;;;4878540;28;20046;-85
2023/12/27 09:55:53;;;;;;;987.60;89.43;;;;;;;;;;4879462;28;20034;-85
2023/12/27 09:58:20;;;;;;;934.70;84.47;;;;;;;;;;4882572;28;20184;-84
2023/12/27 10:00:47;;;;;;;963.78;87.75;;;;;;;;;;4883900;28;20038;-85
2023/12/27 10:03:19;;;;;;;978.75;89.15;;;;;;;;;;4888938;28;20057;-85
2023/12/27 10:05:54;;;;;;;977.33;89.60;;;;;;;;;;4881557;28;20895;-84
2023/12/27 10:08:20;;;;;;;962.75;86.88;;;;;;;;;;4885097;28;20841;-85
2023/12/27 10:10:48;;;;;;;965.67;87.75;;;;;;;;;;4886367;28;20041;-85
2023/12/27 10:13:14;;;;;;;1016.80;94.82;;;;;;;;;;4885615;28;21202;-85
2023/12/27 10:15:41;;;;;;;982.85;90.75;;;;;;;;;;4886376;28;21112;-85
2023/12/27 10:18:08;;;;;;;955.13;86.70;;;;;;;;;;4889197;28;20030;-85
2023/12/27 10:20:38;;;;;;;981.40;89.63;;;;;;;;;;4886543;28;20042;-85
2023/12/27 10:23:05;;;;;;;966.22;87.93;;;;;;;;;;4886330;28;20987;-85
2023/12/27 10:25:32;;;;;;;947.88;85.63;;;;;;;;;;4887397;28;20046;-85
2023/12/27 10:27:59;;;;;;;992.80;91.28;;;;;;;;;;4889170;28;20066;-85
2023/12/27 10:30:26;;;;;;;942.38;86.25;;;;;;;;;;4878237;28;20038;-85
2023/12/27 10:32:59;;;;;;;953.53;86.35;;;;;;;;;;4873113;28;20867;-85
2023/12/27 10:35:27;;;;;;;943.83;85.53;;;;;;;;;;4873629;28;20049;-85
2023/12/27 10:38:04;;;;;;;984.88;90.35;;;;;;;;;;4878142;28;20944;-85
2023/12/27 10:40:36;;;;;;;990.67;92.57;;;;;;;;;;4874938;28;20178;-85
2023/12/27 10:43:03;;;;;;;938.90;85.30;;;;;;;;;;4878080;28;20117;-85
2023/12/27 10:45:30;;;;;;;959.55;86.97;;;;;;;;;;4882125;28;20048;-85
2023/12/27 10:47:59;;;;;;;968.70;88.10;;;;;;;;;;4877221;28;20046;-85
2023/12/27 10:50:27;;;;;;;967.35;87.75;;;;;;;;;;4879235;28;20990;-85
2023/12/27 10:52:57;;;;;;;929.25;83.88;;;;;;;;;;4881667;28;20084;-85
2023/12/27 10:55:27;;;;;;;986.13;90.82;;;;;;;;;;4881248;28;20805;-85
2023/12/27 10:57:54;;;;;;;990.83;91.32;;;;;;;;;;4878582;28;20043;-85
2023/12/27 11:00:24;;;;;;;973.00;88.82;;;;;;;;;;4882247;28;20883;-85
2023/12/27 11:02:51;;;;;;;957.00;87.85;;;;;;;;;;4882805;28;20064;-85
2023/12/27 11:05:19;;;;;;;1028.40;95.70;;;;;;;;;;4881735;28;20042;-85
2023/12/27 11:07:46;;;;;;;1023.13;94.68;;;;;;;;;;4884163;28;20041;-85
2023/12/27 11:10:14;;;;;;;985.30;90.70;;;;;;;;;;4882526;28;20212;-84
2023/12/27 11:12:43;;;;;;;1008.45;92.82;;;;;;;;;;4879223;28;20227;-86
2023/12/27 11:15:11;;;;;;;1044.72;97.15;;;;;;;;;;4883909;28;20049;-86
2023/12/27 11:17:39;;;;;;;949.90;86.05;;;;;;;;;;4884891;28;20266;-87
2023/12/27 11:20:06;;;;;;;926.45;84.20;;;;;;;;;;4886893;28;21241;-87
2023/12/27 11:22:34;;;;;;;983.22;90.55;;;;;;;;;;4885129;28;20148;-86
2023/12/27 11:25:01;;;;;;;920.63;83.05;;;;;;;;;;4889386;28;20041;-85
2023/12/27 11:27:28;;;;;;;940.50;85.18;;;;;;;;;;4881151;28;20053;-86
2023/12/27 11:29:56;;;;;;;966.95;89.28;;;;;;;;;;4871021;28;20038;-86
2023/12/27 11:32:27;;;;;;;958.92;88.35;;;;;;;;;;4856359;28;20771;-85
2023/12/27 11:34:55;;;;;;;976.30;89.22;;;;;;;;;;4870257;28;20038;-85
2023/12/27 11:37:22;;;;;;;1010.42;93.22;;;;;;;;;;4873645;28;20093;-85
2023/12/27 11:39:52;;;;;;;943.50;86.78;;;;;;;;;;4873475;28;20157;-84
2023/12/27 11:42:21;;;;;;;1027.63;95.72;;;;;;;;;;4878862;28;20045;-85
2023/12/27 11:44:48;;;;;;;961.80;87.28;;;;;;;;;;4877786;28;20038;-84
2023/12/27 11:47:15;;;;;;;1050.13;97.88;;;;;;;;;;4875012;28;20058;-84
2023/12/27 11:50:01;;;;;;;956.50;87.63;;;;;;;;;;4878319;28;20202;-85
2023/12/27 11:52:28;;;;;;;988.10;91.25;;;;;;;;;;4877537;28;20039;-84
2023/12/27 11:55:12;;;;;;;941.40;85.85;;;;;;;;;;4878776;28;20165;-85
2023/12/27 11:57:39;;;;;;;960.28;88.05;;;;;;;;;;4879968;28;20871;-84
2023/12/27 12:00:06;;;;;;;965.83;88.53;;;;;;;;;;4881901;28;20046;-85
2023/12/27 12:02:41;;;;;;;998.67;92.72;;;;;;;;;;4881454;28;20980;-85
2023/12/27 12:05:16;;;;;;;989.90;91.60;;;;;;;;;;4882502;28;20042;-85
2023/12/27 12:07:49;;;;;;;950.38;87.13;;;;;;;;;;4882039;28;20041;-85
2023/12/27 12:10:26;;;;;;;971.77;90.33;;;;;;;;;;4883959;28;20050;-85
2023/12/27 12:12:53;;;;;;;964.15;87.88;;;;;;;;;;4885374;28;20288;-85
2023/12/27 12:15:21;;;;;;;1012.65;94.20;;;;;;;;;;4884846;28;20076;-85
2023/12/27 12:17:48;;;;;;;987.00;91.00;;;;;;;;;;4885328;28;20046;-84
2023/12/27 12:20:14;;;;;;;953.17;87.13;;;;;;;;;;4887743;28;20049;-85
2023/12/27 12:22:43;;;;;;;968.65;89.47;;;;;;;;;;4885209;28;20038;-84
2023/12/27 12:25:10;;;;;;;997.90;93.13;;;;;;;;;;4887893;28;20992;-85
2023/12/27 12:27:42;;;;;;;928.83;85.68;;;;;;;;;;4871468;28;20053;-85
2023/12/27 12:30:09;;;;;;;959.38;87.95;;;;;;;;;;4873079;28;21155;-85
2023/12/27 12:32:40;;;;;;;1005.85;92.57;;;;;;;;;;4870801;28;20042;-85
2023/12/27 12:35:10;;;;;;;966.33;89.18;;;;;;;;;;4873899;28;20712;-84
2023/12/27 12:37:37;;;;;;;960.80;88.20;;;;;;;;;;4875730;28;20042;-84
2023/12/27 12:40:06;;;;;;;923.65;84.38;;;;;;;;;;4876811;28;21231;-84
2023/12/27 12:42:33;;;;;;;994.53;92.57;;;;;;;;;;4873757;28;20042;-85
2023/12/27 12:45:03;;;;;;;909.30;81.90;;;;;;;;;;4877257;28;20042;-85
2023/12/27 12:47:30;;;;;;;911.03;82.53;;;;;;;;;;4877242;28;20042;-85
2023/12/27 12:49:56;;;;;;;1037.65;97.72;;;;;;;;;;4861406;28;20869;-84
2023/12/27 12:52:23;;;;;;;968.30;88.90;;;;;;;;;;4897861;28;20066;-85
2023/12/27 12:54:49;;;;;;;958.70;89.63;;;;;;;;;;4880392;28;20050;-85
2023/12/27 12:57:16;;;;;;;1063.25;101.40;;;;;;;;;;4878340;28;20933;-85
2023/12/27 12:59:43;;;;;;;944.45;87.18;;;;;;;;;;4879111;28;20038;-85
2023/12/27 13:02:10;;;;;;;949.78;87.75;;;;;;;;;;4880822;28;20201;-85
2023/12/27 13:04:38;;;;;;;1003.47;93.25;;;;;;;;;;4880418;28;20039;-85
2023/12/27 13:07:05;;;;;;;966.85;87.70;;;;;;;;;;4883197;28;20073;-85
2023/12/27 13:09:31;;;;;;;957.80;87.60;;;;;;;;;;4882638;28;20050;-85
2023/12/27 13:11:59;;;;;;;1020.40;94.93;;;;;;;;;;4884881;28;20050;-85
2023/12/27 13:14:26;;;;;;;1082.78;103.35;;;;;;;;;;4884784;28;20042;-85
2023/12/27 13:16:53;;;;;;;933.63;85.65;;;;;;;;;;4886876;28;20042;-85
2023/12/27 13:19:19;;;;;;;1085.35;102.45;;;;;;;;;;4883179;28;20878;-85
2023/12/27 13:21:46;;;;;;;1109.53;107.28;;;;;;;;;;4884980;28;20148;-85
2023/12/27 13:24:13;;;;;;;991.42;91.88;;;;;;;;;;4880075;28;20046;-85
2023/12/27 13:26:40;;;;;;;987.85;91.30;;;;;;;;;;4869588;28;20842;-85
2023/12/27 13:29:06;;;;;;;965.20;89.35;;;;;;;;;;4868913;28;20046;-85
2023/12/27 13:31:33;;;;;;;930.45;84.20;;;;;;;;;;4874682;28;20042;-85
2023/12/27 13:34:00;;;;;;;979.08;89.63;;;;;;;;;;4872802;28;20050;-85
2023/12/27 13:36:28;;;;;;;1052.47;99.25;;;;;;;;;;4870881;28;20045;-85
2023/12/27 13:38:55;;;;;;;951.28;87.32;;;;;;;;;;4874196;28;20953;-84
2023/12/27 13:41:21;;;;;;;943.55;86.45;;;;;;;;;;4874979;28;20057;-85
2023/12/27 13:43:48;;;;;;;1005.28;92.95;;;;;;;;;;4872144;28;20045;-85
2023/12/27 13:46:15;;;;;;;981.97;90.10;;;;;;;;;;4880072;28;20126;-85
2023/12/27 13:48:42;;;;;;;1025.20;94.65;;;;;;;;;;4880356;28;20718;-85
2023/12/27 13:51:09;;;;;;;965.65;89.30;;;;;;;;;;4882599;28;20034;-85
2023/12/27 13:53:36;;;;;;;930.63;85.18;;;;;;;;;;4883822;28;20895;-84
2023/12/27 13:56:03;;;;;;;955.58;86.75;;;;;;;;;;4881310;28;20049;-87
2023/12/27 13:58:31;;;;;;;983.75;90.00;;;;;;;;;;4882888;28;20046;-86
2023/12/27 14:00:57;;;;;;;991.17;91.00;;;;;;;;;;4883035;28;20915;-85
2023/12/27 14:03:24;;;;;;;1032.88;96.35;;;;;;;;;;4879602;28;20960;-85
2023/12/27 14:05:50;;;;;;;1023.13;94.55;;;;;;;;;;4885485;28;20216;-85
2023/12/27 14:08:17;;;;;;;943.60;86.22;;;;;;;;;;4888352;28;20046;-86